createdAt,value
2019-01-30T00:01:16.939Z,2.20
2019-01-30T00:03:47.668Z,2.30
2019-01-30T00:06:18.375Z,2.20
2019-01-30T00:08:49.082Z,2.00
2019-01-30T00:11:19.744Z,2.10
2019-01-30T00:13:50.476Z,2.20
2019-01-30T00:16:21.164Z,2.20
2019-01-30T00:18:51.879Z,2.00
2019-01-30T00:21:22.555Z,2.20
2019-01-30T00:23:54.858Z,1.90
2019-01-30T00:26:25.521Z,2.00
2019-01-30T00:28:56.192Z,2.10
2019-01-30T00:31:26.957Z,2.20
2019-01-30T00:33:57.623Z,2.00
2019-01-30T00:36:28.339Z,2.10
2019-01-30T00:38:59.078Z,2.00
2019-01-30T00:41:29.727Z,1.90
2019-01-30T00:44:00.395Z,1.90
2019-01-30T00:46:31.126Z,2.10
2019-01-30T00:49:03.279Z,1.90
2019-01-30T00:51:33.952Z,2.00
2019-01-30T00:54:04.666Z,2.10
2019-01-30T00:56:35.406Z,1.50
2019-01-30T00:59:06.051Z,1.80
2019-01-30T01:01:36.755Z,1.90
2019-01-30T01:04:07.455Z,1.80
2019-01-30T01:06:38.155Z,2.10
2019-01-30T01:09:10.510Z,2.00
2019-01-30T01:11:41.222Z,1.90
2019-01-30T01:14:11.968Z,1.90
2019-01-30T01:16:42.736Z,1.80
2019-01-30T01:19:13.456Z,2.00
2019-01-30T01:21:44.180Z,1.90
2019-01-30T01:24:14.834Z,2.00
2019-01-30T01:26:45.557Z,1.90
2019-01-30T01:29:16.199Z,2.00
2019-01-30T01:31:46.863Z,1.80
2019-01-30T01:34:17.560Z,1.80
2019-01-30T01:36:48.648Z,1.90
2019-01-30T01:39:19.325Z,2.00
2019-01-30T01:41:51.647Z,1.80
2019-01-30T01:44:22.322Z,1.80
2019-01-30T01:46:53.031Z,1.90
2019-01-30T01:49:23.769Z,2.10
2019-01-30T01:52:13.481Z,1.80
2019-01-30T01:54:44.160Z,2.00
2019-01-30T01:57:14.820Z,2.00
2019-01-30T01:59:45.820Z,2.00
2019-01-30T02:02:16.587Z,2.20
2019-01-30T02:04:47.295Z,2.10
2019-01-30T02:07:18.019Z,2.00
2019-01-30T02:09:48.713Z,1.80
2019-01-30T02:12:19.367Z,2.10
2019-01-30T02:14:50.060Z,1.90
2019-01-30T02:17:20.745Z,2.00
2019-01-30T02:19:51.442Z,1.80
2019-01-30T02:22:22.095Z,1.90
2019-01-30T02:24:52.755Z,1.70
2019-01-30T02:27:23.433Z,1.70
2019-01-30T02:29:54.163Z,1.60
2019-01-30T02:32:24.837Z,1.40
2019-01-30T02:34:55.504Z,1.70
2019-01-30T02:37:26.166Z,1.50
2019-01-30T02:39:56.888Z,1.40
2019-01-30T02:42:27.551Z,1.40
2019-01-30T02:44:58.226Z,1.20
2019-01-30T02:47:28.910Z,1.10
2019-01-30T02:49:59.593Z,1.20
2019-01-30T02:52:30.275Z,1.10
2019-01-30T02:55:00.938Z,1.20
2019-01-30T02:57:31.520Z,1.00
2019-01-30T03:00:02.219Z,0.90
2019-01-30T03:02:32.928Z,0.80
2019-01-30T03:05:03.607Z,0.70
2019-01-30T03:07:34.318Z,0.80
2019-01-30T03:10:05.674Z,0.70
2019-01-30T03:12:36.370Z,0.50
2019-01-30T03:15:07.362Z,0.60
2019-01-30T03:17:38.041Z,0.60
2019-01-30T03:20:11.259Z,0.50
2019-01-30T03:22:41.967Z,0.40
2019-01-30T03:25:13.419Z,0.20
2019-01-30T03:27:44.132Z,0.00
2019-01-30T03:30:20.128Z,-0.20
2019-01-30T03:32:50.817Z,-0.30
2019-01-30T03:35:21.498Z,-0.30
2019-01-30T03:37:52.249Z,-0.60
2019-01-30T03:40:22.915Z,-0.70
2019-01-30T03:42:53.689Z,-0.70
2019-01-30T03:45:24.404Z,-1.00
2019-01-30T03:47:55.083Z,-1.10
2019-01-30T03:50:25.767Z,-1.10
2019-01-30T03:52:56.419Z,-1.10
2019-01-30T03:55:27.104Z,-1.10
2019-01-30T03:57:57.781Z,-1.20
2019-01-30T04:00:28.483Z,-1.20
2019-01-30T04:02:59.259Z,-1.20
2019-01-30T04:05:29.989Z,-1.30
2019-01-30T04:08:00.700Z,-1.00
2019-01-30T04:10:31.386Z,-0.90
2019-01-30T04:13:02.081Z,-0.40
2019-01-30T04:15:32.793Z,-0.50
2019-01-30T04:18:03.527Z,-0.40
2019-01-30T04:20:34.184Z,-0.30
2019-01-30T04:23:04.847Z,-0.30
2019-01-30T04:25:35.555Z,-0.10
2019-01-30T04:28:06.326Z,0.00
2019-01-30T04:30:37.020Z,-0.10
2019-01-30T04:33:07.729Z,0.20
2019-01-30T04:35:38.424Z,0.20
2019-01-30T04:38:09.171Z,0.40
2019-01-30T04:40:39.873Z,0.40
2019-01-30T04:43:10.559Z,0.20
2019-01-30T04:45:41.270Z,0.60
2019-01-30T04:48:11.990Z,0.40
2019-01-30T04:50:42.721Z,0.30
2019-01-30T04:53:13.479Z,0.20
2019-01-30T04:55:44.217Z,0.30
2019-01-30T04:58:14.930Z,-0.30
2019-01-30T05:00:45.640Z,-0.30
2019-01-30T05:03:16.839Z,-0.50
2019-01-30T05:05:47.546Z,-0.50
2019-01-30T05:08:18.343Z,-0.50
2019-01-30T05:10:49.150Z,-0.90
2019-01-30T05:13:19.836Z,-0.90
2019-01-30T05:15:50.571Z,-1.10
2019-01-30T05:18:21.256Z,-1.20
2019-01-30T05:20:51.971Z,-1.40
2019-01-30T05:23:22.707Z,-1.50
2019-01-30T05:25:53.372Z,-1.40
2019-01-30T05:28:24.070Z,-1.60
2019-01-30T05:30:54.769Z,-1.50
2019-01-30T05:33:25.507Z,-1.50
2019-01-30T05:35:56.211Z,-1.70
2019-01-30T05:38:26.918Z,-1.80
2019-01-30T05:40:57.659Z,-1.60
2019-01-30T05:43:28.788Z,-1.80
2019-01-30T05:45:59.492Z,-1.80
2019-01-30T05:48:30.303Z,-1.90
2019-01-30T05:51:01.052Z,-2.00
2019-01-30T05:53:31.731Z,-1.90
2019-01-30T05:56:02.439Z,-2.20
2019-01-30T05:58:33.135Z,-2.30
2019-01-30T06:01:03.868Z,-2.30
2019-01-30T06:03:34.584Z,-2.30
2019-01-30T06:06:05.300Z,-2.30
2019-01-30T06:08:36.070Z,-2.30
2019-01-30T06:11:06.751Z,-2.60
2019-01-30T06:13:37.465Z,-2.70
2019-01-30T06:16:08.151Z,-2.90
2019-01-30T06:18:38.834Z,-2.80
2019-01-30T06:21:10.052Z,-2.80
2019-01-30T06:23:41.233Z,-3.00
2019-01-30T06:26:12.515Z,-2.80
2019-01-30T06:28:43.211Z,-2.80
2019-01-30T06:31:13.931Z,-2.70
2019-01-30T06:33:44.691Z,-2.60
2019-01-30T06:36:15.376Z,-2.50
2019-01-30T06:38:46.051Z,-2.70
2019-01-30T06:41:16.747Z,-2.50
2019-01-30T06:43:47.423Z,-2.50
2019-01-30T06:46:18.191Z,-2.20
2019-01-30T06:48:48.899Z,-2.30
2019-01-30T06:51:19.579Z,-2.30
2019-01-30T06:53:52.172Z,-2.00
2019-01-30T06:56:22.606Z,-1.80
2019-01-30T06:58:53.563Z,-1.90
2019-01-30T07:01:24.275Z,-1.70
2019-01-30T07:03:55.012Z,-1.50
2019-01-30T07:06:25.744Z,-1.40
2019-01-30T07:08:56.492Z,-1.50
2019-01-30T07:11:27.177Z,-1.10
2019-01-30T07:13:57.859Z,-1.20
2019-01-30T07:16:28.563Z,-1.00
2019-01-30T07:18:59.655Z,-0.80
2019-01-30T07:21:30.344Z,-0.60
2019-01-30T07:24:01.040Z,-0.80
2019-01-30T07:26:31.740Z,-0.70
2019-01-30T07:29:02.471Z,-0.60
2019-01-30T07:31:33.187Z,-0.60
2019-01-30T07:34:03.846Z,-0.50
2019-01-30T07:36:34.536Z,-0.50
2019-01-30T07:39:08.514Z,-0.60
2019-01-30T07:41:39.182Z,-0.50
2019-01-30T07:44:09.857Z,-0.40
2019-01-30T07:46:40.548Z,-0.50
2019-01-30T07:49:11.659Z,-0.50
2019-01-30T07:51:42.326Z,-0.50
2019-01-30T07:54:13.054Z,-0.30
2019-01-30T07:56:43.729Z,-0.60
2019-01-30T07:59:14.467Z,-0.50
2019-01-30T08:01:45.251Z,-0.50
2019-01-30T08:04:15.911Z,-0.50
2019-01-30T08:06:46.643Z,-0.30
2019-01-30T08:09:17.331Z,-0.30
2019-01-30T08:11:48.021Z,-0.10
2019-01-30T08:14:18.734Z,-0.20
2019-01-30T08:16:49.425Z,-0.40
2019-01-30T08:19:20.116Z,-0.10
2019-01-30T08:21:50.791Z,-0.10
2019-01-30T08:24:21.633Z,-0.20
2019-01-30T08:26:52.541Z,-0.20
2019-01-30T08:29:23.864Z,-0.10
2019-01-30T08:31:54.763Z,-0.40
2019-01-30T08:34:25.567Z,-0.20
2019-01-30T08:36:56.239Z,-0.10
2019-01-30T08:39:27.043Z,-0.10
2019-01-30T08:41:57.728Z,-0.20
2019-01-30T08:44:28.432Z,-0.20
2019-01-30T08:46:59.147Z,-0.10
2019-01-30T08:49:29.834Z,0.00
2019-01-30T08:52:00.567Z,-0.20
2019-01-30T08:54:31.242Z,-0.10
2019-01-30T08:57:01.920Z,0.00
2019-01-30T08:59:32.788Z,-0.10
2019-01-30T09:02:03.531Z,0.10
2019-01-30T09:04:34.224Z,0.20
2019-01-30T09:07:04.941Z,0.50
2019-01-30T09:09:35.679Z,0.50
2019-01-30T09:12:06.349Z,0.70
2019-01-30T09:14:37.016Z,0.80
2019-01-30T09:17:08.754Z,1.20
2019-01-30T09:19:39.549Z,1.40
2019-01-30T09:22:10.267Z,1.80
2019-01-30T09:24:41.021Z,1.80
2019-01-30T09:27:11.690Z,2.10
2019-01-30T09:29:42.445Z,2.30
2019-01-30T09:32:13.128Z,2.30
2019-01-30T09:34:43.783Z,2.30
2019-01-30T09:37:14.499Z,2.40
2019-01-30T09:39:45.307Z,2.40
2019-01-30T09:42:15.979Z,2.50
2019-01-30T09:44:46.663Z,2.60
2019-01-30T09:47:17.362Z,2.60
2019-01-30T09:49:48.025Z,2.80
2019-01-30T09:52:26.669Z,2.80
2019-01-30T09:54:51.147Z,2.80
2019-01-30T09:57:21.822Z,3.00
2019-01-30T09:59:52.564Z,3.60
2019-01-30T10:02:25.420Z,3.80
2019-01-30T10:04:55.619Z,3.90
2019-01-30T10:07:26.267Z,3.70
2019-01-30T10:09:56.970Z,3.60
2019-01-30T10:12:27.703Z,3.90
2019-01-30T10:14:58.375Z,3.80
2019-01-30T10:17:31.059Z,3.50
2019-01-30T10:20:01.385Z,3.10
2019-01-30T10:22:32.109Z,3.20
2019-01-30T10:25:02.786Z,3.10
2019-01-30T10:27:33.505Z,3.30
2019-01-30T10:30:04.689Z,3.40
2019-01-30T10:32:35.411Z,3.70
2019-01-30T10:35:06.292Z,3.90
2019-01-30T10:37:37.006Z,4.00
2019-01-30T10:40:09.683Z,4.00
2019-01-30T10:42:40.376Z,4.50
2019-01-30T10:45:11.152Z,4.40
2019-01-30T10:47:41.891Z,4.60
2019-01-30T10:50:14.350Z,4.80
2019-01-30T10:52:45.045Z,4.70
2019-01-30T10:55:17.783Z,4.80
2019-01-30T10:57:49.865Z,4.60
2019-01-30T11:00:29.239Z,4.60
2019-01-30T11:03:00.015Z,4.70
2019-01-30T11:05:30.739Z,4.70
2019-01-30T11:08:01.461Z,4.60
2019-01-30T11:10:34.063Z,4.70
2019-01-30T11:13:04.932Z,4.50
2019-01-30T11:15:35.640Z,4.30
2019-01-30T11:18:08.522Z,4.60
2019-01-30T11:20:39.243Z,4.60
2019-01-30T11:23:09.932Z,4.90
2019-01-30T11:25:41.775Z,5.00
2019-01-30T11:28:12.591Z,5.00
2019-01-30T11:30:43.412Z,5.10
2019-01-30T11:33:14.113Z,5.10
2019-01-30T11:35:44.808Z,5.20
2019-01-30T11:38:15.529Z,5.20
2019-01-30T11:40:46.192Z,4.90
2019-01-30T11:43:17.000Z,5.10
2019-01-30T11:45:47.722Z,4.90
2019-01-30T11:48:18.467Z,4.70
2019-01-30T11:50:49.220Z,4.80
2019-01-30T11:53:19.963Z,4.20
2019-01-30T11:55:50.678Z,4.20
2019-01-30T11:58:21.396Z,4.30
2019-01-30T12:00:58.556Z,4.30
2019-01-30T12:03:29.290Z,4.40
2019-01-30T12:06:00.123Z,4.60
2019-01-30T12:08:30.843Z,4.60
2019-01-30T12:11:01.514Z,4.80
2019-01-30T12:13:32.227Z,4.80
2019-01-30T12:16:02.947Z,5.00
2019-01-30T12:18:33.640Z,4.70
2019-01-30T12:21:04.651Z,4.70
2019-01-30T12:23:35.520Z,4.70
2019-01-30T12:26:06.229Z,4.60
2019-01-30T12:28:36.917Z,4.90
2019-01-30T12:31:07.619Z,4.80
2019-01-30T12:33:38.340Z,4.70
2019-01-30T12:36:09.077Z,5.00
2019-01-30T12:38:39.844Z,4.80
2019-01-30T12:41:10.546Z,5.10
2019-01-30T12:43:41.255Z,5.10
2019-01-30T12:46:11.992Z,5.00
2019-01-30T12:48:42.688Z,4.30
2019-01-30T12:51:13.443Z,4.30
2019-01-30T12:53:44.124Z,4.30
2019-01-30T12:56:14.857Z,4.00
2019-01-30T12:58:45.573Z,3.90
2019-01-30T13:01:16.294Z,3.50
2019-01-30T13:03:46.987Z,3.10
2019-01-30T13:06:17.703Z,2.70
2019-01-30T13:08:48.484Z,2.40
2019-01-30T13:11:19.194Z,2.10
2019-01-30T13:13:49.897Z,2.00
2019-01-30T13:16:20.680Z,1.70
2019-01-30T13:18:51.351Z,1.90
2019-01-30T13:21:22.334Z,1.80
2019-01-30T13:23:53.035Z,1.90
2019-01-30T13:26:23.723Z,1.90
2019-01-30T13:28:54.535Z,1.80
2019-01-30T13:31:25.220Z,1.60
2019-01-30T13:33:55.952Z,0.90
2019-01-30T13:36:26.687Z,1.30
2019-01-30T13:38:58.436Z,1.50
2019-01-30T13:41:29.143Z,1.30
2019-01-30T13:43:59.887Z,1.40
2019-01-30T13:46:30.583Z,1.20
2019-01-30T13:49:01.292Z,1.40
2019-01-30T13:51:31.987Z,1.30
2019-01-30T13:54:02.740Z,1.50
2019-01-30T13:56:33.397Z,1.50
2019-01-30T13:59:04.125Z,1.30
2019-01-30T14:01:34.786Z,1.30
2019-01-30T14:04:05.505Z,1.10
2019-01-30T14:06:36.622Z,1.10
2019-01-30T14:09:09.467Z,0.80
2019-01-30T14:11:40.099Z,0.80
2019-01-30T14:14:10.783Z,0.70
2019-01-30T14:16:41.477Z,0.90
2019-01-30T14:19:12.190Z,0.70
2019-01-30T14:21:42.920Z,0.70
2019-01-30T14:24:13.596Z,0.50
2019-01-30T14:26:44.436Z,0.50
2019-01-30T14:29:15.210Z,0.30
2019-01-30T14:31:45.385Z,0.60
2019-01-30T14:34:15.719Z,0.30
2019-01-30T14:36:45.994Z,0.40
2019-01-30T14:39:16.181Z,0.10
2019-01-30T14:41:46.800Z,0.10
2019-01-30T14:44:16.981Z,-0.10
2019-01-30T14:46:47.624Z,-0.30
2019-01-30T14:49:18.708Z,-0.30
2019-01-30T14:51:49.996Z,-0.40
2019-01-30T14:54:20.233Z,-0.50
2019-01-30T14:56:50.543Z,-0.50
2019-01-30T14:59:20.720Z,-0.70
2019-01-30T15:01:51.060Z,-0.60
2019-01-30T15:04:21.320Z,-0.90
2019-01-30T15:06:51.551Z,-1.10
2019-01-30T15:09:21.818Z,-1.10
2019-01-30T15:11:51.980Z,-1.30
2019-01-30T15:14:22.192Z,-1.20
2019-01-30T15:16:52.783Z,-1.40
2019-01-30T15:19:23.141Z,-1.30
2019-01-30T15:21:53.359Z,-1.40
2019-01-30T15:24:23.753Z,-1.30
2019-01-30T15:26:53.959Z,-1.20
2019-01-30T15:29:24.177Z,-1.20
2019-01-30T15:31:54.367Z,-1.10
2019-01-30T15:34:24.597Z,-1.10
2019-01-30T15:36:54.811Z,-1.10
2019-01-30T15:39:25.049Z,-1.10
2019-01-30T15:41:55.304Z,-1.00
2019-01-30T15:44:25.587Z,-0.90
2019-01-30T15:46:55.897Z,-0.90
2019-01-30T15:49:26.032Z,-0.60
2019-01-30T15:51:56.260Z,-0.80
2019-01-30T15:54:26.553Z,-0.90
2019-01-30T15:56:56.823Z,-0.80
2019-01-30T15:59:27.016Z,-0.80
2019-01-30T16:01:57.398Z,-0.90
2019-01-30T16:04:27.645Z,-1.10
2019-01-30T16:06:58.603Z,-1.10
2019-01-30T16:09:28.839Z,-1.20
2019-01-30T16:11:59.044Z,-1.40
2019-01-30T16:14:30.103Z,-1.40
2019-01-30T16:17:00.300Z,-1.50
2019-01-30T16:19:33.408Z,-1.40
2019-01-30T16:22:04.185Z,-1.20
2019-01-30T16:24:35.023Z,-1.30
2019-01-30T16:27:05.723Z,-1.20
2019-01-30T16:29:36.416Z,-1.20
2019-01-30T16:32:07.124Z,-0.90
2019-01-30T16:34:37.864Z,-0.80
2019-01-30T16:37:08.626Z,-0.80
2019-01-30T16:39:39.297Z,-0.80
2019-01-30T16:42:28.611Z,-0.70
2019-01-30T16:45:02.594Z,-0.80
2019-01-30T16:47:33.632Z,-0.80
2019-01-30T16:50:04.433Z,-0.60
2019-01-30T16:52:54.610Z,-0.80
2019-01-30T16:55:25.995Z,-0.40
2019-01-30T16:57:56.183Z,-0.70
2019-01-30T17:00:29.177Z,-0.60
2019-01-30T17:02:59.856Z,-0.40
2019-01-30T17:05:31.215Z,-0.20
2019-01-30T17:08:01.913Z,-0.30
2019-01-30T17:10:32.613Z,-0.20
2019-01-30T17:13:05.152Z,-0.40
2019-01-30T17:15:35.947Z,-0.10
2019-01-30T17:18:07.549Z,0.00
2019-01-30T17:20:39.036Z,-0.10
2019-01-30T17:23:09.743Z,-0.10
2019-01-30T17:25:40.503Z,-0.10
2019-01-30T17:28:11.230Z,0.30
2019-01-30T17:30:48.221Z,0.10
2019-01-30T17:33:18.927Z,0.00
2019-01-30T17:35:49.783Z,0.40
2019-01-30T17:38:20.511Z,0.20
2019-01-30T17:40:51.208Z,0.20
2019-01-30T17:43:40.890Z,0.20
2019-01-30T17:46:30.169Z,0.50
2019-01-30T17:49:19.348Z,0.40
2019-01-30T17:52:08.515Z,0.60
2019-01-30T17:54:57.737Z,0.70
2019-01-30T17:57:46.948Z,0.60
2019-01-30T18:00:51.510Z,0.80
2019-01-30T18:03:40.975Z,0.70
2019-01-30T18:09:16.471Z,0.60
2019-01-30T18:12:05.816Z,0.80
2019-01-30T18:14:55.983Z,0.60
2019-01-30T18:17:57.085Z,0.70
2019-01-30T18:20:28.143Z,0.80
2019-01-30T18:22:58.835Z,0.80
2019-01-30T18:25:29.591Z,0.80
2019-01-30T18:28:00.267Z,0.70
2019-01-30T18:30:30.984Z,1.00
2019-01-30T18:33:01.846Z,0.80
2019-01-30T18:35:32.513Z,0.90
2019-01-30T18:38:03.238Z,1.00
2019-01-30T18:40:33.947Z,0.90
2019-01-30T18:43:04.724Z,1.00
2019-01-30T18:45:35.415Z,0.80
2019-01-30T18:48:06.335Z,0.80
2019-01-30T18:50:37.006Z,0.90
2019-01-30T18:53:07.764Z,0.80
2019-01-30T18:55:38.591Z,0.90
2019-01-30T18:58:09.347Z,0.90
2019-01-30T19:00:42.328Z,0.80
2019-01-30T19:03:17.579Z,0.90
2019-01-30T19:06:06.923Z,0.80
2019-01-30T19:08:38.719Z,0.90
2019-01-30T19:11:09.515Z,0.80
2019-01-30T19:13:42.814Z,0.70
2019-01-30T19:16:15.128Z,0.70
2019-01-30T19:21:45.876Z,0.90
2019-01-30T19:24:19.757Z,1.00
2019-01-30T19:26:49.555Z,1.10
2019-01-30T19:29:20.308Z,1.00
2019-01-30T19:31:50.979Z,1.10
2019-01-30T19:34:21.933Z,0.80
2019-01-30T19:37:02.981Z,0.90
2019-01-30T19:39:25.474Z,1.00
2019-01-30T19:41:56.255Z,1.20
2019-01-30T19:44:27.083Z,1.00
2019-01-30T19:46:57.762Z,0.90
2019-01-30T19:49:28.700Z,1.30
2019-01-30T19:51:59.444Z,1.00
2019-01-30T19:54:30.135Z,1.30
2019-01-30T19:57:00.939Z,1.20
2019-01-30T19:59:31.624Z,1.20
2019-01-30T20:02:02.459Z,0.90
2019-01-30T20:04:33.427Z,0.90
2019-01-30T20:07:14.223Z,1.10
2019-01-30T20:09:36.448Z,1.10
2019-01-30T20:12:07.159Z,1.20
2019-01-30T20:14:37.862Z,1.00
2019-01-30T20:17:09.199Z,0.90
2019-01-30T20:19:39.940Z,0.90
2019-01-30T20:22:10.679Z,0.90
2019-01-30T20:24:41.368Z,1.00
2019-01-30T20:27:12.246Z,1.10
2019-01-30T20:29:43.098Z,1.00
2019-01-30T20:32:14.109Z,0.90
2019-01-30T20:34:44.791Z,0.80
2019-01-30T20:37:26.010Z,1.00
2019-01-30T20:39:49.203Z,0.80
2019-01-30T20:42:20.016Z,0.90
2019-01-30T20:44:50.978Z,0.90
2019-01-30T20:47:21.790Z,1.10
2019-01-30T20:49:52.655Z,1.00
2019-01-30T20:52:23.580Z,0.80
2019-01-30T20:54:59.857Z,0.90
2019-01-30T20:57:27.355Z,0.80
2019-01-30T20:59:59.345Z,0.90
2019-01-30T21:02:30.058Z,1.00
2019-01-30T21:05:00.917Z,0.80
2019-01-30T21:07:37.298Z,0.90
2019-01-30T21:10:03.851Z,1.00
2019-01-30T21:12:34.603Z,0.90
2019-01-30T21:15:05.752Z,0.90
2019-01-30T21:17:36.495Z,1.20
2019-01-30T21:20:07.636Z,1.10
2019-01-30T21:22:38.741Z,0.90
2019-01-30T21:25:11.867Z,0.90
2019-01-30T21:27:42.735Z,1.10
2019-01-30T21:30:16.712Z,0.90
2019-01-30T21:32:47.753Z,0.90
2019-01-30T21:35:18.434Z,0.90
2019-01-30T21:37:49.418Z,1.10
2019-01-30T21:40:20.396Z,1.00
2019-01-30T21:42:51.704Z,0.80
2019-01-30T21:45:23.514Z,0.90
2019-01-30T21:47:55.119Z,1.10
2019-01-30T21:50:25.857Z,1.10
2019-01-30T21:52:56.736Z,1.10
2019-01-30T21:55:27.776Z,0.90
2019-01-30T21:57:58.527Z,0.90
2019-01-30T22:00:29.983Z,0.80
2019-01-30T22:03:00.694Z,1.00
2019-01-30T22:05:31.788Z,0.90
2019-01-30T22:08:02.596Z,1.00
2019-01-30T22:10:33.704Z,1.20
2019-01-30T22:13:04.898Z,1.10
2019-01-30T22:15:35.602Z,1.00
2019-01-30T22:18:06.539Z,1.00
2019-01-30T22:20:37.699Z,1.00
2019-01-30T22:23:08.362Z,1.00
2019-01-30T22:25:39.151Z,1.00
2019-01-30T22:28:09.828Z,1.20
2019-01-30T22:30:40.647Z,1.00
2019-01-30T22:33:11.355Z,0.90
2019-01-30T22:35:42.147Z,1.10
2019-01-30T22:38:13.052Z,1.00
2019-01-30T22:40:57.421Z,1.00
2019-01-30T22:44:25.137Z,1.10
2019-01-30T22:46:55.980Z,0.90
2019-01-30T22:49:26.923Z,1.20
2019-01-30T22:51:58.011Z,1.10
2019-01-30T22:54:29.119Z,1.20
2019-01-30T22:56:59.882Z,0.90
2019-01-30T22:59:30.612Z,0.90
2019-01-30T23:02:04.291Z,1.10
2019-01-30T23:05:09.988Z,0.90
2019-01-30T23:08:10.131Z,1.20
2019-01-30T23:11:06.831Z,0.90
2019-01-30T23:14:10.636Z,0.80
2019-01-30T23:17:21.279Z,0.90
2019-01-30T23:20:09.163Z,0.80
2019-01-30T23:23:21.488Z,0.70
2019-01-30T23:26:19.139Z,0.90
2019-01-30T23:29:30.158Z,1.00
2019-01-30T23:32:31.966Z,0.90
2019-01-30T23:35:38.717Z,1.00
2019-01-30T23:38:34.393Z,1.00
2019-01-30T23:41:41.214Z,0.90
2019-01-30T23:44:27.463Z,0.80
2019-01-30T23:47:54.575Z,0.90
2019-01-30T23:51:00.698Z,0.80
2019-01-30T23:54:15.743Z,0.80
2019-01-30T23:57:29.883Z,0.90
